Route Details

Aircraft Information
Group: Large Widebodies
Types: B744, MD11
Route Data
Distance: 3599nm
Duration: 8h 00m
Origin METAR: SCEL 080100Z 16009KT 8000 NSC 24/12 Q1011 NOSIG
Dest. METAR: KMIA 080053Z 07010KT 10SM SCT040 23/16 A3023 RMK AO2 SLP237 T02330156 $
Freight Data
(for Feb 8, 2023)
Load Factor:
65%
Manifested Cargo: 128,119lbs
Financial History
Total Freight: 1,241,570lbs
Average Load: 0lbs/flt
Fuel Used: 1,277,412lbs
Avg. Fuel Used: 0lbs/flt
Fuel Expense: $752,995
Avg. Fuel Expense: $0
Avg. Fuel Cost: $0/lbs
Total Gross Income: $3,566,536
Pilot Pay: $1,583
Total Expenses: $471,841
Total Revenue: $2,324,568
Average Revenue: $0

Capitol Logistics 707




SCEL
Arturo Merino Benitez International Airport
Santiago, CL
KMIA
Miami International Airport
Miami, US